Time;durP1;ratioP1;P1;durP2;ratioP2;P2;SDS_P1;SDS_P2;PMS_P1;PMS_P2;Temp;Humidity;BMP_temperature;BMP_pressure;BME280_temperature;BME280_humidity;BME280_pressure;Samples;Min_cycle;Max_cycle;Signal;HPM_P1;HPM_P2
2022/03/20 00:00:36;;;;;;;28.27;18.33;;;;;;;5.77;43.94;103711.41;5000714;28;20299;-57
2022/03/20 00:03:06;;;;;;;21.67;17.80;;;;;;;5.85;44.67;103718.91;5004037;28;20248;-57
2022/03/20 00:05:34;;;;;;;24.37;18.63;;;;;;;5.59;43.17;103704.16;5003171;28;20241;-57
2022/03/20 00:08:01;;;;;;;24.80;18.10;;;;;;;5.74;45.21;103712.09;5000914;28;20236;-56
2022/03/20 00:10:27;;;;;;;20.23;17.80;;;;;;;5.68;44.36;103709.06;5001645;28;20292;-56
2022/03/20 00:12:54;;;;;;;23.07;17.83;;;;;;;5.83;44.50;103702.28;5003483;28;20372;-57
2022/03/20 00:15:21;;;;;;;24.87;18.00;;;;;;;5.90;43.57;103698.38;5009684;28;20255;-57
2022/03/20 00:17:49;;;;;;;25.97;18.00;;;;;;;5.70;43.54;103700.56;5003176;28;20237;-60
2022/03/20 00:20:16;;;;;;;26.43;19.07;;;;;;;5.66;44.34;103701.16;5001675;28;20252;-57
2022/03/20 00:22:43;;;;;;;23.00;17.30;;;;;;;5.35;43.66;103705.13;5001129;28;20242;-57
2022/03/20 00:25:09;;;;;;;27.40;17.67;;;;;;;5.64;44.29;103704.47;5008945;28;20714;-56
2022/03/20 00:27:36;;;;;;;25.47;18.50;;;;;;;5.67;43.86;103689.94;5006702;28;20246;-56
2022/03/20 00:30:03;;;;;;;22.27;17.17;;;;;;;5.79;43.58;103695.06;5009212;28;20283;-57
2022/03/20 00:32:30;;;;;;;24.67;18.73;;;;;;;5.61;42.98;103699.94;5008285;28;20318;-59
2022/03/20 00:34:59;;;;;;;25.43;18.20;;;;;;;5.70;43.16;103695.34;5008509;28;20237;-57
2022/03/20 00:37:26;;;;;;;30.00;18.53;;;;;;;5.62;43.98;103696.56;5006133;28;20791;-57
2022/03/20 00:39:52;;;;;;;22.13;16.23;;;;;;;5.75;43.77;103693.03;5025049;28;20290;-57
2022/03/20 00:42:19;;;;;;;22.17;17.10;;;;;;;5.46;43.04;103691.09;5016106;28;20239;-57
2022/03/20 00:44:45;;;;;;;22.83;17.03;;;;;;;5.62;43.77;103690.44;5005154;28;20244;-57
2022/03/20 00:47:13;;;;;;;24.40;17.93;;;;;;;5.69;44.54;103688.34;5003600;28;20277;-57
2022/03/20 00:49:41;;;;;;;22.37;17.77;;;;;;;5.70;42.13;103690.13;5006888;28;20233;-58
2022/03/20 00:52:09;;;;;;;22.03;16.73;;;;;;;5.74;42.18;103686.94;5002020;28;20230;-58
2022/03/20 00:54:35;;;;;;;23.40;17.30;;;;;;;5.81;41.91;103684.75;5006732;28;20745;-58
2022/03/20 00:57:02;;;;;;;27.03;18.17;;;;;;;5.77;41.71;103687.94;5006244;28;20285;-58
2022/03/20 00:59:28;;;;;;;27.80;17.73;;;;;;;5.71;42.78;103683.22;5003214;28;20233;-58
2022/03/20 01:01:55;;;;;;;21.43;17.47;;;;;;;5.39;41.55;103683.66;5006080;28;20359;-58
2022/03/20 01:04:21;;;;;;;20.13;17.17;;;;;;;5.17;41.87;103674.41;5002621;28;20244;-57
2022/03/20 01:06:49;;;;;;;21.90;17.23;;;;;;;5.43;43.23;103677.88;5004803;28;20248;-56
2022/03/20 01:09:15;;;;;;;24.13;17.73;;;;;;;5.42;43.33;103671.75;5008907;28;20237;-58
2022/03/20 01:11:41;;;;;;;26.07;17.90;;;;;;;5.30;41.91;103672.63;5019403;28;20233;-57
2022/03/20 01:14:08;;;;;;;21.83;16.43;;;;;;;5.58;41.39;103678.91;5023177;28;20232;-58
2022/03/20 01:16:34;;;;;;;21.90;16.37;;;;;;;5.85;44.73;103676.31;5010222;28;20320;-57
2022/03/20 01:19:01;;;;;;;21.20;17.03;;;;;;;5.55;41.80;103681.31;5005206;28;20325;-58
2022/03/20 01:21:30;;;;;;;23.00;17.10;;;;;;;5.54;42.04;103670.75;5006022;28;20316;-57
2022/03/20 01:23:57;;;;;;;22.10;16.40;;;;;;;5.51;42.00;103666.28;5008855;28;20371;-58
2022/03/20 01:26:24;;;;;;;26.03;16.07;;;;;;;5.44;40.96;103674.44;5005713;28;20273;-57
2022/03/20 01:28:50;;;;;;;21.20;16.87;;;;;;;5.50;42.85;103665.34;5006419;28;20250;-57
2022/03/20 01:31:17;;;;;;;23.50;18.53;;;;;;;5.40;41.59;103660.31;5004540;28;20643;-58
2022/03/20 01:33:44;;;;;;;23.07;17.10;;;;;;;5.31;41.10;103658.81;4997288;28;20246;-56
2022/03/20 01:36:10;;;;;;;18.37;16.23;;;;;;;4.88;40.99;103659.38;5010090;28;20236;-58
2022/03/20 01:38:36;;;;;;;25.23;16.20;;;;;;;5.42;43.16;103650.00;5010389;28;20585;-57
2022/03/20 01:41:05;;;;;;;22.80;16.10;;;;;;;5.17;40.95;103650.97;5017179;28;20862;-56
2022/03/20 01:43:31;;;;;;;23.07;16.93;;;;;;;5.45;43.20;103658.03;5007822;28;20237;-58
2022/03/20 01:45:57;;;;;;;26.73;16.90;;;;;;;5.12;41.73;103644.53;5011201;28;20954;-57
2022/03/20 01:48:24;;;;;;;20.13;16.43;;;;;;;5.29;40.76;103642.16;5024308;28;20253;-57
2022/03/20 01:50:50;;;;;;;23.80;16.73;;;;;;;5.22;40.70;103649.56;5026858;28;20263;-58
2022/03/20 01:53:19;;;;;;;19.63;16.30;;;;;;;5.20;40.40;103645.97;5023767;28;20267;-57
2022/03/20 01:55:46;;;;;;;22.53;16.20;;;;;;;5.47;41.77;103646.00;5003550;28;20304;-59
2022/03/20 01:58:16;;;;;;;23.03;17.30;;;;;;;5.32;41.07;103642.38;5017211;28;20320;-58
2022/03/20 02:00:42;;;;;;;23.83;16.93;;;;;;;5.12;42.13;103639.31;5004979;28;20263;-57
2022/03/20 02:03:09;;;;;;;23.03;16.67;;;;;;;5.44;41.43;103633.69;5008924;28;20313;-57
2022/03/20 02:05:35;;;;;;;25.70;17.63;;;;;;;5.36;42.24;103628.75;5016483;28;20237;-56
2022/03/20 02:08:02;;;;;;;19.93;16.27;;;;;;;5.37;42.59;103630.53;5009800;28;20309;-58
2022/03/20 02:10:35;;;;;;;22.97;16.40;;;;;;;4.99;41.93;103619.38;5006504;28;20630;-55
2022/03/20 02:13:01;;;;;;;26.67;16.07;;;;;;;4.88;42.40;103611.59;5006090;28;20247;-56
2022/03/20 02:15:30;;;;;;;21.77;16.83;;;;;;;4.79;42.36;103612.78;5004934;28;20265;-57
2022/03/20 02:17:56;;;;;;;26.40;17.17;;;;;;;4.77;42.59;103618.66;5004214;28;20350;-57
2022/03/20 02:20:23;;;;;;;25.00;16.27;;;;;;;4.88;44.01;103615.13;5007300;28;20236;-57
2022/03/20 02:22:53;;;;;;;32.50;17.30;;;;;;;4.85;43.78;103622.72;5008155;28;20233;-57
2022/03/20 02:25:20;;;;;;;25.00;16.80;;;;;;;4.84;43.45;103620.00;5006910;28;20666;-57
2022/03/20 02:27:46;;;;;;;22.93;17.57;;;;;;;4.90;44.11;103621.31;5005689;28;20290;-58
2022/03/20 02:30:16;;;;;;;23.83;16.87;;;;;;;5.02;43.42;103616.06;5006660;28;20243;-57
2022/03/20 02:32:44;;;;;;;23.87;17.20;;;;;;;4.91;43.82;103606.59;5007852;28;20320;-57
2022/03/20 02:35:14;;;;;;;21.97;16.90;;;;;;;4.65;45.30;103608.31;5023033;28;20257;-57
2022/03/20 02:37:41;;;;;;;23.37;16.37;;;;;;;4.67;44.00;103598.00;5009911;28;20716;-56
2022/03/20 02:40:11;;;;;;;22.90;16.30;;;;;;;4.97;45.11;103602.72;5003576;28;20233;-57
2022/03/20 02:42:38;;;;;;;22.30;17.50;;;;;;;4.85;42.27;103601.91;5007201;28;20237;-57
2022/03/20 02:45:07;;;;;;;21.77;16.53;;;;;;;5.24;44.70;103608.91;5022870;28;20237;-57
2022/03/20 02:47:34;;;;;;;21.03;16.77;;;;;;;5.14;44.07;103602.97;5007671;28;20237;-58
2022/03/20 02:50:05;;;;;;;24.73;17.37;;;;;;;4.69;41.81;103599.94;5027041;28;20282;-57
2022/03/20 02:52:42;;;;;;;25.87;17.13;;;;;;;4.45;44.26;103593.91;5031482;28;20307;-57
2022/03/20 02:55:10;;;;;;;24.80;16.40;;;;;;;4.78;45.27;103600.56;5024066;28;20297;-57
2022/03/20 02:57:37;;;;;;;24.10;16.77;;;;;;;5.13;44.99;103594.25;5008636;28;20303;-58
2022/03/20 03:00:06;;;;;;;23.50;16.70;;;;;;;5.18;42.21;103586.75;5008128;28;20245;-57
2022/03/20 03:02:36;;;;;;;21.23;16.87;;;;;;;4.68;42.05;103582.53;5014917;28;20263;-56
2022/03/20 03:05:02;;;;;;;22.77;15.67;;;;;;;4.93;43.11;103594.59;5014149;28;20294;-57
2022/03/20 03:07:30;;;;;;;20.80;17.00;;;;;;;4.83;42.20;103592.19;5008310;28;20234;-57
2022/03/20 03:12:42;;;;;;;25.17;16.70;;;;;;;4.71;42.25;103587.94;5014822;28;20628;-57
2022/03/20 03:15:21;;;;;;;22.17;17.07;;;;;;;5.01;43.34;103583.00;5007163;28;20712;-57
2022/03/20 03:17:48;;;;;;;24.23;16.20;;;;;;;5.10;44.00;103593.16;5023625;28;20235;-57
2022/03/20 03:20:15;;;;;;;23.53;17.80;;;;;;;4.99;43.83;103595.94;5026115;28;20241;-56
2022/03/20 03:25:18;;;;;;;24.87;18.03;;;;;;;4.97;42.43;103584.50;5727587;23;20757;-52
2022/03/20 03:27:46;;;;;;;21.00;16.57;;;;;;;4.55;44.03;103582.47;4984075;28;20295;-53
2022/03/20 03:30:13;;;;;;;23.23;17.50;;;;;;;4.27;42.31;103580.53;4991764;28;20246;-52
2022/03/20 03:32:40;;;;;;;22.87;16.30;;;;;;;4.80;43.97;103582.44;4997828;28;20771;-54
2022/03/20 03:37:51;;;;;;;23.60;16.00;;;;;;;4.99;42.98;103580.31;4997791;23;20283;-55
2022/03/20 03:40:17;;;;;;;24.47;17.33;;;;;;;4.75;43.26;103589.06;4988772;28;20583;-53
2022/03/20 03:42:43;;;;;;;23.33;17.33;;;;;;;4.38;42.98;103588.19;4989240;28;20406;-54
2022/03/20 03:45:11;;;;;;;25.53;15.97;;;;;;;4.74;45.47;103579.44;4988027;28;20266;-54
2022/03/20 03:47:38;;;;;;;26.87;16.70;;;;;;;4.81;44.38;103578.13;4988587;28;20782;-55
2022/03/20 03:50:04;;;;;;;26.10;16.63;;;;;;;4.81;45.15;103589.47;4973792;28;20328;-54
2022/03/20 03:52:31;;;;;;;22.57;16.37;;;;;;;4.36;42.90;103590.69;4979414;28;20656;-53
2022/03/20 03:54:57;;;;;;;25.87;17.87;;;;;;;4.54;42.64;103584.16;4975924;28;20258;-53
2022/03/20 03:57:23;;;;;;;25.63;17.20;;;;;;;4.58;44.69;103580.06;4982279;28;20237;-53
2022/03/20 03:59:50;;;;;;;22.70;16.03;;;;;;;4.68;45.38;103574.72;4978755;28;20712;-54
2022/03/20 04:02:17;;;;;;;23.07;16.33;;;;;;;4.46;45.73;103574.94;4969831;28;20230;-53
2022/03/20 04:04:46;;;;;;;22.23;18.03;;;;;;;4.34;45.17;103579.25;4973517;28;20242;-54
2022/03/20 04:07:16;;;;;;;26.37;18.23;;;;;;;4.31;45.34;103569.53;4969698;28;20242;-53
2022/03/20 04:09:42;;;;;;;19.67;16.37;;;;;;;4.53;44.70;103573.66;4967769;28;20234;-53
2022/03/20 04:12:10;;;;;;;21.63;16.77;;;;;;;4.75;45.04;103576.94;4987505;28;20236;-54
2022/03/20 04:14:36;;;;;;;25.87;18.80;;;;;;;4.35;45.63;103569.75;4979336;28;20233;-53
2022/03/20 04:17:05;;;;;;;27.03;17.63;;;;;;;4.36;43.84;103567.28;4980642;28;20237;-53
2022/03/20 04:19:32;;;;;;;26.97;16.90;;;;;;;3.89;44.16;103563.91;4977773;28;20705;-53
2022/03/20 04:22:00;;;;;;;22.80;17.20;;;;;;;4.12;44.47;103566.44;4978902;28;20758;-53
2022/03/20 04:24:26;;;;;;;21.27;16.37;;;;;;;4.38;44.78;103567.38;4971906;28;20245;-53
2022/03/20 04:26:53;;;;;;;23.47;16.93;;;;;;;4.55;44.92;103559.94;4976683;28;20227;-53
2022/03/20 04:29:20;;;;;;;30.60;18.07;;;;;;;4.50;44.08;103566.53;4969314;28;20321;-54
2022/03/20 04:31:47;;;;;;;24.53;18.77;;;;;;;4.37;44.68;103553.47;4969147;28;20246;-54
2022/03/20 04:34:13;;;;;;;24.67;17.47;;;;;;;4.52;45.42;103559.72;4970363;28;20642;-53
2022/03/20 04:36:41;;;;;;;20.47;16.50;;;;;;;4.37;45.87;103562.97;4974666;28;20248;-54
2022/03/20 04:39:08;;;;;;;24.10;17.27;;;;;;;4.23;44.80;103564.63;4984856;28;20246;-54
2022/03/20 04:41:35;;;;;;;25.63;18.10;;;;;;;4.41;45.39;103567.59;4988972;28;21938;-52
2022/03/20 04:44:01;;;;;;;23.13;18.23;;;;;;;4.14;45.03;103559.69;4985429;28;20344;-53
2022/03/20 04:46:28;;;;;;;22.40;17.83;;;;;;;3.96;44.62;103568.75;4983106;28;20630;-53
2022/03/20 04:59:53;;;;;;;21.83;17.23;;;;;;;3.88;45.14;103589.00;4973764;28;20352;-53
2022/03/20 05:02:20;;;;;;;24.23;17.87;;;;;;;3.52;45.77;103587.22;4983542;28;20308;-54
2022/03/20 05:04:46;;;;;;;26.47;17.20;;;;;;;3.67;45.78;103601.31;4970311;28;20238;-53
2022/03/20 05:07:14;;;;;;;23.63;17.73;;;;;;;4.20;47.80;103588.69;4968891;28;20237;-53
2022/03/20 05:15:10;;;;;;;29.90;18.80;;;;;;;3.41;46.29;103593.31;4988176;28;20268;-53
2022/03/20 05:17:36;;;;;;;25.47;19.03;;;;;;;3.53;47.22;103587.31;4974249;28;20289;-53
2022/03/20 05:20:03;;;;;;;27.43;18.77;;;;;;;3.74;48.33;103577.59;4974477;28;20230;-54
2022/03/20 05:22:32;;;;;;;24.40;18.93;;;;;;;3.68;48.55;103582.34;4982822;28;20240;-54
2022/03/20 05:25:00;;;;;;;26.93;18.33;;;;;;;3.97;48.00;103586.16;4987004;28;20320;-53
2022/03/20 05:27:27;;;;;;;24.47;18.07;;;;;;;3.93;46.56;103591.91;4988956;28;20245;-53
2022/03/20 05:29:54;;;;;;;27.27;18.87;;;;;;;4.05;45.82;103591.09;4992275;28;20237;-53
2022/03/20 05:32:20;;;;;;;31.50;17.73;;;;;;;3.94;47.46;103586.84;4983881;28;20309;-54
2022/03/20 05:34:47;;;;;;;26.03;18.07;;;;;;;3.87;46.48;103588.91;4971948;28;20235;-54
2022/03/20 05:37:13;;;;;;;25.40;18.93;;;;;;;3.88;47.41;103598.50;4972012;28;20230;-53
2022/03/20 05:39:41;;;;;;;22.27;17.67;;;;;;;3.66;46.26;103598.63;4989542;28;20253;-53
2022/03/20 05:42:08;;;;;;;24.63;17.77;;;;;;;3.77;45.73;103598.63;4975088;28;20245;-53
2022/03/20 05:44:34;;;;;;;25.60;18.70;;;;;;;3.86;46.75;103592.25;4982270;28;20233;-54
2022/03/20 05:47:01;;;;;;;21.20;17.13;;;;;;;3.60;48.03;103593.88;4971248;28;20706;-53
2022/03/20 05:49:28;;;;;;;25.07;19.03;;;;;;;3.32;47.87;103602.22;4972043;28;20241;-53
2022/03/20 05:51:55;;;;;;;26.23;18.93;;;;;;;3.48;47.73;103609.47;4971303;28;20237;-54
2022/03/20 05:54:22;;;;;;;25.97;18.47;;;;;;;3.62;47.76;103602.69;4975898;28;20241;-54
2022/03/20 05:59:36;;;;;;;24.67;19.20;;;;;;;3.88;47.86;103612.38;4971937;28;20241;-54
2022/03/20 06:02:03;;;;;;;26.30;17.90;;;;;;;3.44;48.45;103619.50;4971166;28;20248;-54
2022/03/20 06:04:33;;;;;;;23.93;17.60;;;;;;;3.25;47.11;103615.53;4971242;28;20266;-54
2022/03/20 06:06:59;;;;;;;26.50;17.90;;;;;;;3.56;48.06;103613.53;4971403;28;20662;-53
2022/03/20 06:09:26;;;;;;;26.93;18.13;;;;;;;3.58;46.66;103613.66;4971579;28;20245;-54
2022/03/20 06:11:53;;;;;;;25.30;18.13;;;;;;;3.76;48.19;103606.31;4980018;28;20230;-53
2022/03/20 06:14:21;;;;;;;26.27;19.03;;;;;;;3.69;46.37;103604.94;4986513;28;20299;-54
2022/03/20 06:16:48;;;;;;;30.50;20.00;;;;;;;3.57;47.43;103601.44;4975260;28;20232;-53
2022/03/20 06:19:15;;;;;;;24.73;18.43;;;;;;;3.27;46.72;103607.88;4979511;28;20313;-54
2022/03/20 06:21:42;;;;;;;31.77;19.77;;;;;;;3.38;48.10;103601.78;4977046;28;20244;-53
2022/03/20 06:24:08;;;;;;;26.97;18.20;;;;;;;3.44;45.88;103603.91;4978804;28;20292;-53
2022/03/20 06:26:35;;;;;;;24.40;17.93;;;;;;;3.85;46.58;103600.88;4973650;28;20250;-53
2022/03/20 06:29:05;;;;;;;26.20;18.50;;;;;;;3.91;45.88;103611.72;4993801;28;20236;-53
2022/03/20 06:31:32;;;;;;;29.30;18.63;;;;;;;3.51;46.01;103598.38;4999860;28;20318;-54
2022/03/20 06:33:58;;;;;;;26.97;19.03;;;;;;;3.57;46.12;103609.22;5002090;28;20264;-53
2022/03/20 06:36:24;;;;;;;28.63;19.13;;;;;;;3.73;45.56;103612.19;4995386;28;20276;-53
2022/03/20 06:38:51;;;;;;;24.70;18.00;;;;;;;3.71;46.04;103607.66;4987192;28;20236;-54
2022/03/20 06:41:18;;;;;;;25.90;18.63;;;;;;;4.08;45.67;103600.84;4986407;28;20655;-54
2022/03/20 06:43:45;;;;;;;30.70;19.37;;;;;;;3.85;47.09;103612.16;4976863;28;20715;-54
2022/03/20 06:46:13;;;;;;;28.40;18.67;;;;;;;3.78;47.15;103630.69;4976646;28;20321;-54
2022/03/20 06:48:39;;;;;;;23.13;17.17;;;;;;;3.83;45.47;103611.16;4965305;28;20248;-53
2022/03/20 06:51:05;;;;;;;26.33;18.53;;;;;;;3.89;45.78;103623.69;4973724;28;20237;-53
2022/03/20 06:53:33;;;;;;;24.63;17.37;;;;;;;3.93;45.39;103625.69;4972886;28;20285;-53
2022/03/20 06:56:00;;;;;;;33.37;21.73;;;;;;;3.96;45.09;103628.53;4981393;28;20248;-53
2022/03/20 06:58:27;;;;;;;30.80;18.67;;;;;;;3.92;45.83;103629.09;4972650;28;20245;-53
2022/03/20 07:00:53;;;;;;;26.57;18.37;;;;;;;3.93;45.73;103630.91;4972071;28;20330;-54
2022/03/20 07:03:21;;;;;;;27.67;20.27;;;;;;;4.14;46.31;103623.75;4973963;28;20263;-54
2022/03/20 07:05:48;;;;;;;26.43;20.10;;;;;;;3.88;46.29;103621.88;4969585;28;20829;-55
2022/03/20 07:08:14;;;;;;;29.47;18.97;;;;;;;3.94;45.62;103623.22;4974313;28;20246;-53
2022/03/20 07:10:42;;;;;;;30.30;18.57;;;;;;;4.40;46.94;103628.22;4999197;28;20649;-54
2022/03/20 07:15:53;;;;;;;28.60;20.77;;;;;;;4.01;44.97;103619.38;4988568;28;20368;-52
2022/03/20 07:18:21;;;;;;;31.83;19.53;;;;;;;3.95;45.50;103617.22;4993826;28;20259;-54
2022/03/20 07:20:49;;;;;;;24.10;17.73;;;;;;;4.21;46.24;103624.31;4986623;28;20288;-54
2022/03/20 07:23:16;;;;;;;24.03;19.03;;;;;;;4.07;44.88;103620.72;4993763;28;20718;-53
2022/03/20 07:31:13;;;;;;;26.17;18.70;;;;;;;4.50;46.12;103604.66;4991141;28;20287;-55
2022/03/20 07:33:41;;;;;;;26.83;19.40;;;;;;;4.59;44.86;103596.59;5004796;28;20268;-52
2022/03/20 07:36:08;;;;;;;25.40;18.30;;;;;;;4.30;43.62;103598.94;4986458;28;20233;-52
2022/03/20 07:38:35;;;;;;;27.37;18.33;;;;;;;4.60;43.87;103603.59;4982740;28;20312;-53
2022/03/20 07:41:02;;;;;;;28.20;19.80;;;;;;;4.74;43.11;103618.50;4974061;28;20226;-54
2022/03/20 07:43:29;;;;;;;28.80;18.20;;;;;;;4.93;43.69;103615.44;4972280;28;20239;-53
2022/03/20 07:45:56;;;;;;;26.20;18.90;;;;;;;5.03;44.12;103623.97;4972744;28;20289;-55
2022/03/20 07:48:23;;;;;;;22.97;17.87;;;;;;;5.23;44.29;103617.53;4970297;28;20230;-54
2022/03/20 07:50:51;;;;;;;24.03;17.50;;;;;;;5.10;42.53;103627.00;4969122;28;20234;-54
2022/03/20 07:53:17;;;;;;;29.90;19.50;;;;;;;4.91;41.88;103609.22;4972450;28;20241;-55
2022/03/20 07:55:44;;;;;;;25.87;17.70;;;;;;;5.15;41.96;103615.19;4986339;28;20684;-54
2022/03/20 07:58:10;;;;;;;25.93;18.23;;;;;;;5.40;43.14;103613.41;4983300;28;20293;-53
2022/03/20 08:00:38;;;;;;;29.80;18.63;;;;;;;5.39;41.97;103622.03;4985866;28;20307;-52
2022/03/20 08:03:05;;;;;;;26.00;18.53;;;;;;;5.48;40.91;103606.13;4976406;28;20320;-54
2022/03/20 08:05:31;;;;;;;25.40;18.20;;;;;;;5.85;40.17;103609.41;4969366;28;20258;-53
2022/03/20 08:08:02;;;;;;;24.87;19.30;;;;;;;5.98;40.64;103611.16;4969916;28;20269;-51
2022/03/20 08:10:29;;;;;;;26.37;19.20;;;;;;;5.89;39.84;103616.63;4971839;28;20285;-53
2022/03/20 08:12:55;;;;;;;25.57;18.80;;;;;;;5.84;39.66;103609.34;4990147;28;20234;-53
2022/03/20 08:15:22;;;;;;;23.03;18.47;;;;;;;5.90;41.83;103620.16;4993068;28;20260;-53
2022/03/20 08:17:50;;;;;;;28.33;19.03;;;;;;;5.94;39.81;103612.66;4994498;28;20325;-54
2022/03/20 08:20:17;;;;;;;24.73;17.40;;;;;;;6.08;38.96;103600.50;4990779;28;20603;-53
2022/03/20 08:22:43;;;;;;;27.63;18.17;;;;;;;6.25;39.86;103608.47;4980900;28;20333;-53
2022/03/20 08:25:12;;;;;;;27.47;19.83;;;;;;;6.38;39.93;103616.28;4970759;28;20242;-53
2022/03/20 08:27:49;;;;;;;24.97;19.67;;;;;;;6.30;38.97;103614.91;4967756;28;20234;-52
2022/03/20 08:30:17;;;;;;;25.33;18.80;;;;;;;6.62;38.79;103612.56;4968006;28;20238;-53
2022/03/20 08:32:46;;;;;;;27.40;17.40;;;;;;;6.85;39.13;103606.16;4968932;28;20238;-52
2022/03/20 08:35:14;;;;;;;23.70;18.83;;;;;;;6.93;38.54;103611.84;4969208;28;20226;-53
2022/03/20 08:37:41;;;;;;;26.90;18.73;;;;;;;7.09;37.66;103606.72;4968536;28;20297;-53
2022/03/20 08:40:13;;;;;;;20.20;16.57;;;;;;;7.11;38.32;103610.31;4996196;28;20669;-52
2022/03/20 08:42:40;;;;;;;31.20;19.17;;;;;;;7.29;37.77;103600.03;4978252;28;20238;-53
2022/03/20 08:45:07;;;;;;;28.70;19.03;;;;;;;7.27;38.47;103598.19;4974590;28;20716;-51
2022/03/20 08:47:35;;;;;;;26.93;18.53;;;;;;;7.26;36.66;103588.50;4986608;28;20289;-52
2022/03/20 08:50:02;;;;;;;27.17;18.57;;;;;;;7.18;37.08;103591.56;4986803;28;20232;-53
2022/03/20 08:52:28;;;;;;;23.40;18.23;;;;;;;7.21;37.22;103587.34;4992405;28;20333;-52
2022/03/20 08:54:55;;;;;;;24.37;18.43;;;;;;;7.28;37.01;103592.13;4969313;28;20254;-52
2022/03/20 08:57:21;;;;;;;24.40;17.43;;;;;;;7.49;37.91;103582.91;4971289;28;20309;-53
2022/03/20 08:59:49;;;;;;;28.70;18.60;;;;;;;7.54;36.39;103583.16;4994744;28;20296;-53
2022/03/20 09:02:16;;;;;;;24.90;18.87;;;;;;;7.49;36.58;103593.38;5005747;28;20259;-52
2022/03/20 09:04:42;;;;;;;29.03;19.13;;;;;;;7.20;36.42;103580.34;4974553;28;20297;-53
2022/03/20 09:07:08;;;;;;;24.17;19.07;;;;;;;7.16;36.99;103585.38;4976280;28;20269;-53
2022/03/20 09:09:35;;;;;;;20.57;17.23;;;;;;;7.47;38.15;103581.91;4991133;28;20241;-53
2022/03/20 09:12:02;;;;;;;30.23;19.83;;;;;;;7.58;36.95;103585.13;4995366;28;20319;-52
2022/03/20 09:14:28;;;;;;;26.57;18.70;;;;;;;7.74;36.99;103586.94;5001055;28;20299;-52
2022/03/20 09:19:37;;;;;;;22.57;17.23;;;;;;;8.05;35.84;103586.94;4954299;28;20240;-53
2022/03/20 09:22:06;;;;;;;25.37;17.83;;;;;;;8.26;35.88;103576.72;4995117;28;20312;-53
2022/03/20 09:24:32;;;;;;;25.50;18.83;;;;;;;8.36;35.08;103573.81;4995720;28;20308;-51
2022/03/20 09:27:00;;;;;;;26.93;19.03;;;;;;;8.27;35.28;103568.06;4991870;28;20297;-52
2022/03/20 09:29:26;;;;;;;24.57;19.27;;;;;;;8.28;35.29;103570.78;4992983;28;20245;-54
2022/03/20 09:31:53;;;;;;;25.57;18.80;;;;;;;8.40;35.40;103569.66;4997087;28;20241;-54
2022/03/20 09:34:21;;;;;;;23.43;19.70;;;;;;;8.63;34.89;103573.47;4994742;28;20241;-53
2022/03/20 09:36:47;;;;;;;21.43;16.57;;;;;;;8.77;35.01;103572.47;4998289;28;20293;-54
2022/03/20 09:39:13;;;;;;;31.13;18.57;;;;;;;9.03;33.51;103569.50;5003850;28;20238;-53
2022/03/20 09:41:41;;;;;;;24.67;18.10;;;;;;;9.02;33.25;103565.09;5007648;28;20354;-53
2022/03/20 09:44:08;;;;;;;22.67;17.83;;;;;;;8.98;34.19;103572.69;5008689;28;20226;-56
2022/03/20 09:46:35;;;;;;;25.20;17.60;;;;;;;9.38;32.84;103570.38;5004364;28;20241;-53
2022/03/20 09:49:04;;;;;;;25.30;18.57;;;;;;;9.48;32.89;103554.25;4995188;28;20233;-54
2022/03/20 09:51:32;;;;;;;24.10;17.33;;;;;;;9.51;33.06;103561.38;4997451;28;20292;-52
2022/03/20 09:53:58;;;;;;;25.53;17.93;;;;;;;9.38;33.25;103564.22;4997864;28;20229;-54
2022/03/20 09:56:25;;;;;;;23.17;18.13;;;;;;;9.56;32.49;103560.78;4996380;28;20238;-53
2022/03/20 09:58:51;;;;;;;24.83;17.47;;;;;;;9.65;33.41;103560.34;4992686;28;20675;-53
2022/03/20 10:01:18;;;;;;;21.33;16.90;;;;;;;9.53;33.27;103560.63;4990920;28;20233;-52
2022/03/20 10:03:46;;;;;;;25.60;18.43;;;;;;;9.55;32.70;103559.00;4993786;28;20230;-53
2022/03/20 10:06:16;;;;;;;19.80;16.30;;;;;;;9.43;33.50;103542.63;4989060;28;20731;-52
2022/03/20 10:09:09;;;;;;;24.13;18.40;;;;;;;9.51;33.26;103535.13;4988064;28;20250;-53
2022/03/20 10:11:36;;;;;;;24.50;17.80;;;;;;;9.53;32.02;103539.63;4980540;28;20248;-51
2022/03/20 10:14:07;;;;;;;24.23;18.47;;;;;;;9.72;33.31;103532.66;4986037;28;20245;-53
2022/03/20 10:16:33;;;;;;;22.97;17.53;;;;;;;10.07;32.01;103531.66;4992715;28;20320;-53
2022/03/20 10:19:00;;;;;;;25.73;17.90;;;;;;;9.93;31.71;103533.69;4991931;28;20596;-52
2022/03/20 10:21:42;;;;;;;23.43;18.07;;;;;;;9.97;32.54;103533.00;4989182;28;20284;-54
2022/03/20 10:24:16;;;;;;;21.77;17.97;;;;;;;10.04;31.56;103529.81;4991668;28;20283;-52
2022/03/20 10:26:46;;;;;;;21.00;16.07;;;;;;;10.02;33.97;103533.19;4991525;28;20313;-52
2022/03/20 10:29:16;;;;;;;23.30;16.73;;;;;;;9.99;32.18;103536.56;5000825;28;20246;-52
2022/03/20 10:31:49;;;;;;;24.23;17.47;;;;;;;9.99;31.79;103531.31;5001042;28;20316;-52
2022/03/20 10:34:15;;;;;;;25.17;16.97;;;;;;;10.21;31.82;103527.03;4993498;28;20238;-53
2022/03/20 10:36:42;;;;;;;22.77;16.87;;;;;;;10.34;31.21;103533.81;4992306;28;20267;-53
2022/03/20 10:39:10;;;;;;;24.07;15.87;;;;;;;10.38;30.13;103535.72;4987544;28;20241;-53
2022/03/20 10:41:39;;;;;;;21.73;16.03;;;;;;;10.42;30.15;103528.03;4987150;28;20321;-53
2022/03/20 10:44:14;;;;;;;19.23;15.67;;;;;;;10.39;29.84;103525.31;4990229;28;20253;-52
2022/03/20 10:46:41;;;;;;;17.33;14.47;;;;;;;10.35;29.27;103520.72;4984635;28;20317;-52
2022/03/20 10:49:07;;;;;;;21.53;14.50;;;;;;;10.10;30.05;103523.03;4984787;28;20250;-51
2022/03/20 10:51:39;;;;;;;19.47;15.03;;;;;;;10.21;30.27;103522.72;4969094;28;20284;-53
2022/03/20 10:54:08;;;;;;;17.73;14.97;;;;;;;10.25;29.83;103518.50;4977060;28;20246;-55
2022/03/20 10:56:35;;;;;;;23.60;15.37;;;;;;;10.17;29.18;103510.25;4968323;28;20293;-54
2022/03/20 10:59:12;;;;;;;19.17;14.37;;;;;;;10.23;31.30;103512.28;4961952;28;20293;-52
2022/03/20 11:01:40;;;;;;;17.73;14.80;;;;;;;10.15;29.27;103509.31;4972588;28;20238;-52
2022/03/20 11:04:07;;;;;;;16.20;13.20;;;;;;;10.31;30.45;103510.03;4968045;28;20238;-53
2022/03/20 11:06:34;;;;;;;20.90;15.17;;;;;;;10.40;29.90;103502.56;4969292;28;20234;-52
2022/03/20 11:09:04;;;;;;;19.17;14.00;;;;;;;10.45;29.23;103501.91;4967455;28;20242;-52
2022/03/20 11:11:31;;;;;;;18.47;13.57;;;;;;;10.45;29.26;103491.41;4968205;28;20748;-53
2022/03/20 11:13:59;;;;;;;16.00;13.23;;;;;;;10.49;30.17;103488.13;4965670;28;20261;-52
2022/03/20 11:16:28;;;;;;;15.77;13.63;;;;;;;10.71;28.21;103489.03;4972151;28;20238;-57
2022/03/20 11:18:55;;;;;;;17.47;13.07;;;;;;;10.72;27.05;103480.31;4981803;28;20230;-60
2022/03/20 11:21:24;;;;;;;17.03;13.67;;;;;;;10.45;27.99;103483.53;4976383;28;20618;-55
2022/03/20 11:23:51;;;;;;;17.63;12.23;;;;;;;10.48;27.22;103470.53;4975126;28;20256;-55
2022/03/20 11:26:21;;;;;;;14.43;12.13;;;;;;;10.54;29.39;103474.28;4969422;28;20238;-53
2022/03/20 11:28:51;;;;;;;16.43;13.33;;;;;;;10.75;28.00;103472.56;4966399;28;20601;-53
2022/03/20 11:31:17;;;;;;;19.07;13.80;;;;;;;10.92;27.49;103466.28;4967128;28;20265;-52
2022/03/20 11:33:45;;;;;;;18.27;13.53;;;;;;;11.04;28.03;103463.25;4964136;28;20656;-53
2022/03/20 11:36:12;;;;;;;14.73;13.17;;;;;;;11.08;27.67;103464.28;4968338;28;20244;-54
2022/03/20 11:38:40;;;;;;;21.57;13.73;;;;;;;10.90;27.81;103441.66;4974190;28;20409;-52
2022/03/20 11:41:12;;;;;;;18.73;13.67;;;;;;;11.19;28.26;103449.81;4971204;28;20234;-53
2022/03/20 11:43:39;;;;;;;20.40;14.27;;;;;;;11.44;27.72;103449.97;4987721;28;20241;-55
2022/03/20 11:46:30;;;;;;;17.13;13.50;;;;;;;11.42;29.21;103435.84;4976756;28;20241;-53
2022/03/20 11:49:29;;;;;;;16.93;14.40;;;;;;;11.41;28.15;103438.44;4972402;28;20326;-53
2022/03/20 11:52:05;;;;;;;17.77;13.77;;;;;;;11.05;27.89;103432.59;4983830;28;20245;-52
2022/03/20 11:54:34;;;;;;;17.07;14.17;;;;;;;11.11;28.74;103427.59;4963405;28;20250;-52
2022/03/20 11:57:01;;;;;;;17.57;14.07;;;;;;;10.96;28.47;103427.88;4964653;28;20242;-53